createdAt,value
2022-12-26T00:00:24.965Z,5.88
2022-12-26T00:03:30.734Z,5.99
2022-12-26T00:06:34.133Z,5.69
2022-12-26T00:09:37.252Z,5.69
2022-12-26T00:12:48.900Z,5.61
2022-12-26T00:16:17.166Z,5.40
2022-12-26T00:19:20.005Z,5.34
2022-12-26T00:22:31.347Z,5.26
2022-12-26T00:25:34.768Z,5.39
2022-12-26T00:29:02.091Z,5.13
2022-12-26T00:32:06.699Z,5.15
2022-12-26T00:35:13.031Z,5.14
2022-12-26T00:38:19.433Z,4.99
2022-12-26T00:41:32.254Z,4.80
2022-12-26T00:44:44.977Z,5.13
2022-12-26T00:47:48.318Z,4.80
2022-12-26T00:50:51.357Z,5.07
2022-12-26T00:53:54.527Z,5.27
2022-12-26T00:57:17.609Z,5.09
2022-12-26T01:00:22.568Z,5.00
2022-12-26T01:03:25.911Z,5.08
2022-12-26T01:06:29.888Z,4.87
2022-12-26T01:09:32.667Z,4.77
2022-12-26T01:12:37.022Z,4.69
2022-12-26T01:15:39.952Z,4.59
2022-12-26T01:18:43.216Z,4.68
2022-12-26T01:21:46.034Z,4.79
2022-12-26T01:24:57.395Z,4.65
2022-12-26T01:28:00.204Z,4.70
2022-12-26T01:31:11.126Z,4.89
2022-12-26T01:34:13.942Z,5.28
2022-12-26T01:37:17.247Z,5.19
2022-12-26T01:40:20.077Z,5.48
2022-12-26T01:43:53.706Z,5.21
2022-12-26T01:46:56.647Z,4.83
2022-12-26T01:50:33.530Z,4.98
2022-12-26T01:53:53.101Z,4.77
2022-12-26T01:57:04.144Z,4.64
2022-12-26T02:00:08.376Z,4.68
2022-12-26T02:03:41.077Z,5.12
2022-12-26T02:06:44.434Z,5.41
2022-12-26T02:09:47.451Z,5.40
2022-12-26T02:12:54.381Z,5.37
2022-12-26T02:15:58.196Z,5.48
2022-12-26T02:19:02.393Z,5.31
2022-12-26T02:22:32.070Z,5.16
2022-12-26T02:25:51.548Z,5.31
2022-12-26T02:29:19.272Z,5.29
2022-12-26T02:33:24.927Z,5.41
2022-12-26T02:36:54.117Z,5.48
2022-12-26T02:40:23.247Z,5.61
2022-12-26T02:44:01.139Z,5.58
2022-12-26T02:47:25.840Z,5.61
2022-12-26T02:51:12.797Z,5.57
2022-12-26T02:54:57.954Z,5.55
2022-12-26T02:58:45.569Z,5.45
2022-12-26T03:02:15.907Z,5.36
2022-12-26T03:05:59.675Z,5.19
2022-12-26T03:09:47.857Z,5.05
2022-12-26T03:13:13.555Z,4.95
2022-12-26T03:16:41.099Z,4.87
2022-12-26T03:20:26.931Z,4.69
2022-12-26T03:23:32.188Z,4.75
2022-12-26T03:26:47.480Z,4.83
2022-12-26T03:30:29.583Z,4.91
2022-12-26T03:34:18.555Z,5.04
2022-12-26T03:37:56.732Z,4.83
2022-12-26T03:41:37.019Z,5.27
2022-12-26T03:45:21.478Z,5.09
2022-12-26T03:48:54.102Z,4.72
2022-12-26T03:52:45.767Z,4.75
2022-12-26T03:56:15.884Z,4.69
2022-12-26T03:59:46.775Z,4.57
2022-12-26T04:03:12.175Z,4.39
2022-12-26T04:06:43.620Z,4.36
2022-12-26T04:10:22.204Z,4.53
2022-12-26T04:14:00.972Z,4.50
2022-12-26T04:17:42.069Z,4.52
2022-12-26T04:20:54.305Z,4.18
2022-12-26T04:24:29.710Z,4.50
2022-12-26T04:27:52.096Z,4.17
2022-12-26T04:31:24.527Z,3.92
2022-12-26T04:34:58.370Z,3.77
2022-12-26T04:38:23.100Z,3.63
2022-12-26T04:41:52.612Z,3.57
2022-12-26T04:44:56.340Z,3.61
2022-12-26T04:48:38.219Z,3.49
2022-12-26T04:51:42.519Z,3.32
2022-12-26T04:55:05.922Z,3.41
2022-12-26T04:58:08.701Z,3.06
2022-12-26T05:01:50.379Z,3.39
2022-12-26T05:05:11.865Z,3.54
2022-12-26T05:08:45.090Z,3.20
2022-12-26T05:11:47.871Z,3.76
2022-12-26T05:15:11.574Z,3.52
2022-12-26T05:18:33.045Z,3.59
2022-12-26T05:21:55.220Z,3.40
2022-12-26T05:25:17.553Z,3.70
2022-12-26T05:28:44.468Z,3.50
2022-12-26T05:31:47.383Z,3.18
2022-12-26T05:34:51.127Z,3.15
2022-12-26T05:37:57.781Z,3.20
2022-12-26T05:41:25.989Z,3.12
2022-12-26T05:44:28.768Z,3.26
2022-12-26T05:47:31.951Z,3.32
2022-12-26T05:50:35.266Z,2.91
2022-12-26T05:53:58.340Z,2.76
2022-12-26T05:57:04.017Z,2.64
2022-12-26T06:00:15.841Z,2.77
2022-12-26T06:03:19.014Z,2.89
2022-12-26T06:06:23.379Z,3.14
2022-12-26T06:09:27.405Z,2.83
2022-12-26T06:12:32.018Z,3.13
2022-12-26T06:15:38.832Z,2.81
2022-12-26T06:18:42.044Z,2.56
2022-12-26T06:21:45.247Z,2.32
2022-12-26T06:25:08.466Z,2.11
2022-12-26T06:28:11.464Z,1.93
2022-12-26T06:31:23.736Z,1.73
2022-12-26T06:34:29.981Z,1.95
2022-12-26T06:37:34.273Z,2.03
2022-12-26T06:40:42.135Z,2.00
2022-12-26T06:43:47.264Z,2.12
2022-12-26T06:46:50.442Z,2.21
2022-12-26T06:49:53.602Z,2.11
2022-12-26T06:52:56.796Z,1.97
2022-12-26T06:56:10.039Z,1.99
2022-12-26T06:59:13.261Z,2.05
2022-12-26T07:02:16.576Z,2.06
2022-12-26T07:05:40.604Z,2.10
2022-12-26T07:08:43.723Z,2.09
2022-12-26T07:11:50.028Z,2.06
2022-12-26T07:14:58.052Z,2.06
2022-12-26T07:18:06.347Z,2.25
2022-12-26T07:21:15.423Z,2.44
2022-12-26T07:24:21.770Z,2.73
2022-12-26T07:27:24.711Z,2.66
2022-12-26T07:30:28.568Z,2.88
2022-12-26T07:33:53.883Z,3.05
2022-12-26T07:36:59.033Z,3.27
2022-12-26T07:40:01.777Z,3.70
2022-12-26T07:43:04.884Z,2.89
2022-12-26T07:46:07.805Z,3.15
2022-12-26T07:49:12.575Z,3.17
2022-12-26T07:52:15.639Z,3.16
2022-12-26T07:55:18.896Z,3.16
2022-12-26T07:58:24.619Z,3.73
2022-12-26T08:01:28.449Z,4.32
2022-12-26T08:04:34.535Z,5.51
2022-12-26T08:07:37.426Z,6.19
2022-12-26T08:10:40.650Z,5.99
2022-12-26T08:13:43.708Z,5.58
2022-12-26T08:16:51.396Z,6.74
2022-12-26T08:19:55.881Z,6.32
2022-12-26T08:22:58.991Z,7.38
2022-12-26T08:26:10.425Z,7.27
2022-12-26T08:29:14.137Z,8.31
2022-12-26T08:32:17.202Z,8.86
2022-12-26T08:35:20.312Z,9.48
2022-12-26T08:38:23.506Z,9.72
2022-12-26T08:41:28.477Z,9.74
2022-12-26T08:44:31.413Z,10.18
2022-12-26T08:47:34.551Z,10.46
2022-12-26T08:50:41.017Z,10.42
2022-12-26T08:53:46.058Z,10.74
2022-12-26T08:57:09.595Z,11.17
2022-12-26T09:00:13.552Z,11.10
2022-12-26T09:03:16.633Z,11.60
2022-12-26T09:06:20.759Z,10.97
2022-12-26T09:09:23.498Z,10.98
2022-12-26T09:12:26.979Z,11.46
2022-12-26T09:15:29.991Z,10.69
2022-12-26T09:18:33.683Z,10.66
2022-12-26T09:21:36.631Z,10.44
2022-12-26T09:24:40.136Z,10.53
2022-12-26T09:27:42.886Z,10.59
2022-12-26T09:30:47.106Z,10.67
2022-12-26T09:33:50.404Z,10.44
2022-12-26T09:36:53.462Z,11.43
2022-12-26T09:39:56.297Z,11.12
2022-12-26T09:43:21.649Z,11.49
2022-12-26T09:46:39.762Z,11.16
2022-12-26T09:50:14.315Z,10.77
2022-12-26T09:53:29.515Z,11.18
2022-12-26T09:57:01.659Z,11.20
2022-12-26T10:00:05.090Z,11.39
2022-12-26T10:03:15.094Z,11.31
2022-12-26T10:06:18.253Z,11.16
2022-12-26T10:09:54.330Z,11.61
2022-12-26T10:13:19.359Z,11.56
2022-12-26T10:16:37.370Z,11.51
2022-12-26T10:20:09.616Z,11.69
2022-12-26T10:23:39.860Z,12.11
2022-12-26T10:26:50.463Z,12.07
2022-12-26T10:30:06.153Z,12.03
2022-12-26T10:33:40.296Z,12.10
2022-12-26T10:36:51.059Z,12.48
2022-12-26T10:40:23.079Z,12.08
2022-12-26T10:43:34.334Z,12.57
2022-12-26T10:46:54.804Z,12.54
2022-12-26T10:50:00.003Z,12.06
2022-12-26T10:53:05.768Z,12.22
2022-12-26T10:56:12.009Z,11.68
2022-12-26T10:59:22.699Z,11.99
2022-12-26T11:02:25.737Z,12.03
2022-12-26T11:08:52.134Z,12.02
2022-12-26T11:11:55.142Z,11.90
2022-12-26T11:15:00.621Z,11.49
2022-12-26T11:18:16.624Z,11.73
2022-12-26T11:21:19.633Z,12.03
2022-12-26T11:24:25.591Z,11.73
2022-12-26T11:27:28.344Z,11.41
2022-12-26T11:30:34.005Z,11.40
2022-12-26T11:33:43.300Z,11.38
2022-12-26T11:36:49.714Z,11.33
2022-12-26T11:39:53.666Z,11.09
2022-12-26T11:42:59.296Z,11.01
2022-12-26T11:46:02.443Z,11.11
2022-12-26T11:49:06.426Z,10.92
2022-12-26T11:52:41.028Z,10.99
2022-12-26T11:55:44.321Z,11.09
2022-12-26T11:58:47.101Z,11.06
2022-12-26T12:02:18.246Z,10.85
2022-12-26T12:05:27.867Z,10.82
2022-12-26T12:09:12.146Z,10.78
2022-12-26T12:12:42.582Z,10.66
2022-12-26T12:15:57.261Z,10.70
2022-12-26T12:19:34.298Z,10.69
2022-12-26T12:22:45.028Z,10.78
2022-12-26T12:26:01.774Z,10.90
2022-12-26T12:29:31.979Z,10.97
2022-12-26T12:32:58.756Z,11.13
2022-12-26T12:36:11.415Z,11.22
2022-12-26T12:39:33.767Z,11.35
2022-12-26T12:43:06.836Z,11.23
2022-12-26T12:46:31.513Z,11.09
2022-12-26T12:50:02.939Z,11.12
2022-12-26T12:53:33.120Z,10.90
2022-12-26T12:57:26.929Z,10.92
2022-12-26T13:00:40.970Z,10.86
2022-12-26T13:04:13.540Z,10.89
2022-12-26T13:07:27.161Z,10.89
2022-12-26T13:10:34.465Z,10.93
2022-12-26T13:13:46.197Z,10.78
2022-12-26T13:17:01.124Z,10.78
2022-12-26T13:20:44.636Z,10.65
2022-12-26T13:24:19.217Z,10.74
2022-12-26T13:27:27.421Z,10.65
2022-12-26T13:30:30.489Z,10.64
2022-12-26T13:33:34.523Z,10.56
2022-12-26T13:36:41.939Z,10.45
2022-12-26T13:39:45.582Z,10.37
2022-12-26T13:43:21.718Z,10.32
2022-12-26T13:46:55.611Z,10.27
2022-12-26T13:49:58.622Z,10.22
2022-12-26T13:53:01.923Z,10.19
2022-12-26T13:56:30.765Z,10.16
2022-12-26T13:59:44.013Z,10.18
2022-12-26T14:03:18.093Z,10.09
2022-12-26T14:06:29.953Z,10.05
2022-12-26T14:09:48.885Z,9.99
2022-12-26T14:13:00.901Z,9.92
2022-12-26T14:16:16.190Z,9.86
2022-12-26T14:19:28.323Z,9.73
2022-12-26T14:22:34.076Z,9.62
2022-12-26T14:25:51.144Z,9.53
2022-12-26T14:29:13.384Z,9.42
2022-12-26T14:32:38.017Z,9.26
2022-12-26T14:36:00.973Z,9.14
2022-12-26T14:39:41.691Z,8.92
2022-12-26T14:43:12.747Z,8.76
2022-12-26T14:46:31.330Z,8.65
2022-12-26T14:49:36.143Z,8.51
2022-12-26T14:52:40.900Z,8.41
2022-12-26T14:55:53.353Z,8.32
2022-12-26T14:59:24.398Z,8.13
2022-12-26T15:02:34.321Z,7.97
2022-12-26T15:05:41.648Z,7.88
2022-12-26T15:09:06.331Z,7.72
2022-12-26T15:12:59.845Z,7.58
2022-12-26T15:16:31.335Z,7.46
2022-12-26T15:19:34.406Z,7.34
2022-12-26T15:23:15.063Z,7.19
2022-12-26T15:26:30.405Z,6.99
2022-12-26T15:30:10.825Z,6.79
2022-12-26T15:33:31.432Z,6.81
2022-12-26T15:37:04.370Z,6.75
2022-12-26T15:40:14.879Z,6.52
2022-12-26T15:43:33.807Z,6.36
2022-12-26T15:46:50.829Z,6.17
2022-12-26T15:50:19.175Z,6.14
2022-12-26T15:53:25.475Z,6.81
2022-12-26T15:56:52.203Z,6.77
2022-12-26T16:00:32.392Z,6.01
2022-12-26T16:03:41.459Z,5.87
2022-12-26T16:07:09.151Z,5.79
2022-12-26T16:10:35.017Z,5.75
2022-12-26T16:14:35.949Z,5.52
2022-12-26T16:17:41.593Z,5.59
2022-12-26T16:21:04.756Z,5.56
2022-12-26T16:24:10.089Z,5.53
2022-12-26T16:27:18.746Z,5.54
2022-12-26T16:30:27.376Z,5.73
2022-12-26T16:33:33.635Z,5.42
2022-12-26T16:36:37.182Z,5.19
2022-12-26T16:39:40.066Z,5.11
2022-12-26T16:42:45.218Z,5.10
2022-12-26T16:45:51.045Z,5.13
2022-12-26T16:49:03.442Z,5.10
2022-12-26T16:52:08.087Z,5.06
2022-12-26T16:55:36.265Z,4.89
2022-12-26T16:58:39.603Z,4.84
2022-12-26T17:01:47.571Z,4.76
2022-12-26T17:04:58.449Z,4.70
2022-12-26T17:08:03.435Z,4.71
2022-12-26T17:11:06.345Z,4.62
2022-12-26T17:14:25.473Z,4.83
2022-12-26T17:17:38.451Z,4.69
2022-12-26T17:20:41.583Z,4.57
2022-12-26T17:23:45.184Z,4.54
2022-12-26T17:27:11.715Z,4.50
2022-12-26T17:30:29.480Z,4.50
2022-12-26T17:33:34.981Z,4.38
2022-12-26T17:37:17.118Z,4.38
2022-12-26T17:40:07.165Z,4.38
2022-12-26T17:43:12.935Z,4.62
2022-12-26T17:46:18.327Z,4.49
2022-12-26T17:49:21.784Z,4.17
2022-12-26T17:52:29.378Z,4.10
2022-12-26T17:55:33.216Z,4.17
2022-12-26T17:58:44.683Z,4.24
2022-12-26T18:01:47.595Z,4.03
2022-12-26T18:04:51.306Z,4.13
2022-12-26T18:07:59.668Z,4.11
2022-12-26T18:11:28.995Z,4.03
2022-12-26T18:15:02.150Z,3.85
2022-12-26T18:18:33.784Z,3.90
2022-12-26T18:21:38.735Z,3.87
2022-12-26T18:24:52.056Z,4.16
2022-12-26T18:27:55.771Z,4.13
2022-12-26T18:30:59.670Z,3.90
2022-12-26T18:34:22.707Z,3.74
2022-12-26T18:37:29.927Z,3.79
2022-12-26T18:40:39.764Z,3.60
2022-12-26T18:43:45.193Z,3.62
2022-12-26T18:46:48.023Z,3.58
2022-12-26T18:49:59.305Z,3.48
2022-12-26T18:53:21.940Z,3.47
2022-12-26T18:56:27.010Z,3.43
2022-12-26T18:59:29.832Z,3.42
2022-12-26T19:02:33.312Z,3.37
2022-12-26T19:05:36.303Z,3.56
2022-12-26T19:08:39.588Z,3.24
2022-12-26T19:11:43.264Z,3.15
2022-12-26T19:14:47.068Z,3.16
2022-12-26T19:17:49.821Z,3.05
2022-12-26T19:20:53.040Z,3.09
2022-12-26T19:23:55.855Z,3.09
2022-12-26T19:27:01.039Z,2.99
2022-12-26T19:30:06.622Z,2.79
2022-12-26T19:33:29.704Z,2.89
2022-12-26T19:36:52.441Z,3.03
2022-12-26T19:39:58.441Z,3.12
2022-12-26T19:43:21.719Z,2.97
2022-12-26T19:46:42.021Z,2.99
2022-12-26T19:49:46.925Z,2.76
2022-12-26T19:52:50.903Z,2.66
2022-12-26T19:56:17.168Z,2.62
2022-12-26T19:59:43.226Z,2.62
2022-12-26T20:02:46.360Z,2.54
2022-12-26T20:06:31.867Z,2.49
2022-12-26T20:09:37.115Z,2.56
2022-12-26T20:12:40.290Z,2.41
2022-12-26T20:15:43.085Z,2.58
2022-12-26T20:19:08.551Z,2.55
2022-12-26T20:22:11.763Z,2.36
2022-12-26T20:25:14.936Z,2.47
2022-12-26T20:28:39.861Z,2.66
2022-12-26T20:31:43.146Z,2.51
2022-12-26T20:34:46.931Z,2.62
2022-12-26T20:38:02.748Z,2.62
2022-12-26T20:41:06.731Z,2.79
2022-12-26T20:44:19.437Z,2.78
2022-12-26T20:47:22.440Z,2.95
2022-12-26T20:50:28.462Z,3.02
2022-12-26T20:53:31.737Z,3.11
2022-12-26T20:56:36.449Z,2.96
2022-12-26T20:59:59.165Z,3.22
2022-12-26T21:03:22.794Z,3.34
2022-12-26T21:06:30.751Z,3.50
2022-12-26T21:09:34.172Z,3.81
2022-12-26T21:12:37.387Z,3.84
2022-12-26T21:15:40.703Z,3.70
2022-12-26T21:18:48.419Z,3.82
2022-12-26T21:22:11.823Z,3.84
2022-12-26T21:25:14.608Z,3.87
2022-12-26T21:28:17.934Z,3.90
2022-12-26T21:31:21.797Z,3.92
2022-12-26T21:34:45.514Z,4.07
2022-12-26T21:37:48.519Z,4.06
2022-12-26T21:40:51.724Z,4.02
2022-12-26T21:43:55.166Z,4.09
2022-12-26T21:46:58.474Z,4.14
2022-12-26T21:50:01.281Z,4.15
2022-12-26T21:53:04.712Z,4.13
2022-12-26T21:56:08.989Z,4.13
2022-12-26T21:59:34.771Z,4.09
2022-12-26T22:02:57.502Z,4.09
2022-12-26T22:06:01.712Z,4.05
2022-12-26T22:09:08.157Z,4.15
2022-12-26T22:12:40.412Z,4.16
2022-12-26T22:16:05.737Z,4.18
2022-12-26T22:19:28.876Z,3.95
2022-12-26T22:22:52.489Z,4.10
2022-12-26T22:25:57.343Z,4.07
2022-12-26T22:29:00.570Z,4.14
2022-12-26T22:32:07.980Z,4.24
2022-12-26T22:35:18.179Z,4.36
2022-12-26T22:38:42.778Z,4.32
2022-12-26T22:41:49.738Z,4.31
2022-12-26T22:44:57.408Z,4.24
2022-12-26T22:48:02.698Z,4.25
2022-12-26T22:51:06.847Z,4.29
2022-12-26T22:54:10.000Z,4.32
2022-12-26T22:57:13.997Z,4.39
2022-12-26T23:00:17.350Z,4.43
2022-12-26T23:03:21.451Z,4.46
2022-12-26T23:06:31.124Z,4.37
2022-12-26T23:09:35.431Z,4.43
2022-12-26T23:12:45.082Z,4.69
2022-12-26T23:15:56.531Z,4.60
2022-12-26T23:19:28.340Z,4.58
2022-12-26T23:22:38.343Z,4.62
2022-12-26T23:25:41.748Z,4.50
2022-12-26T23:29:04.299Z,4.57
2022-12-26T23:32:10.174Z,4.72
2022-12-26T23:35:20.312Z,4.63
2022-12-26T23:38:52.639Z,4.75
2022-12-26T23:41:57.680Z,4.76
2022-12-26T23:45:02.525Z,4.63
2022-12-26T23:48:06.047Z,4.73
2022-12-26T23:51:09.764Z,4.80
2022-12-26T23:54:14.734Z,4.83
2022-12-26T23:57:26.213Z,4.83
